createdAt,value
2023-05-01T00:00:05.783Z,0.00
2023-05-01T00:01:05.714Z,0.00
2023-05-01T00:02:05.696Z,0.00
2023-05-01T00:03:05.756Z,0.00
2023-05-01T00:04:05.771Z,0.00
2023-05-01T00:05:05.821Z,0.00
2023-05-01T00:06:05.743Z,0.00
2023-05-01T00:07:05.644Z,0.00
2023-05-01T00:08:05.630Z,0.00
2023-05-01T00:09:05.636Z,0.00
2023-05-01T00:10:05.621Z,0.00
2023-05-01T00:11:05.628Z,0.00
2023-05-01T00:12:05.593Z,0.00
2023-05-01T00:13:05.577Z,0.00
2023-05-01T00:14:05.579Z,0.00
2023-05-01T00:15:05.590Z,0.00
2023-05-01T00:16:05.574Z,0.00
2023-05-01T00:17:05.535Z,0.00
2023-05-01T00:18:05.565Z,0.00
2023-05-01T00:19:05.533Z,0.00
2023-05-01T00:20:05.513Z,0.00
2023-05-01T00:21:05.517Z,0.00
2023-05-01T00:22:05.480Z,0.00
2023-05-01T00:23:05.461Z,0.00
2023-05-01T00:24:05.469Z,0.00
2023-05-01T00:25:05.438Z,0.00
2023-05-01T00:26:05.484Z,0.00
2023-05-01T00:27:05.422Z,0.00
2023-05-01T00:28:05.408Z,0.00
2023-05-01T00:29:05.399Z,0.00
2023-05-01T00:30:05.391Z,0.00
2023-05-01T00:31:05.426Z,0.00
2023-05-01T00:32:05.462Z,0.00
2023-05-01T00:33:05.402Z,0.00
2023-05-01T00:34:05.338Z,0.00
2023-05-01T00:35:05.334Z,0.00
2023-05-01T00:36:05.316Z,0.00
2023-05-01T00:37:05.319Z,0.00
2023-05-01T00:38:05.297Z,0.00
2023-05-01T00:39:05.295Z,0.00
2023-05-01T00:40:05.295Z,0.00
2023-05-01T00:41:05.266Z,0.00
2023-05-01T00:42:05.270Z,0.00
2023-05-01T00:43:05.247Z,0.00
2023-05-01T00:44:05.238Z,0.00
2023-05-01T00:45:05.235Z,0.00
2023-05-01T00:46:05.250Z,0.00
2023-05-01T00:47:05.232Z,0.00
2023-05-01T00:48:05.248Z,0.00
2023-05-01T00:49:05.182Z,0.00
2023-05-01T00:50:05.178Z,0.00
2023-05-01T00:51:05.181Z,0.00
2023-05-01T00:52:05.152Z,0.00
2023-05-01T00:53:05.144Z,0.00
2023-05-01T00:54:05.126Z,0.00
2023-05-01T00:55:05.113Z,0.00
2023-05-01T00:56:05.098Z,0.00
2023-05-01T00:57:05.089Z,0.00
2023-05-01T00:58:05.081Z,0.00
2023-05-01T00:59:05.078Z,0.00
2023-05-01T01:00:05.061Z,0.00
2023-05-01T01:01:05.086Z,0.00
2023-05-01T01:02:05.027Z,0.00
2023-05-01T01:03:05.105Z,0.00
2023-05-01T01:04:05.046Z,0.00
2023-05-01T01:05:05.033Z,0.00
2023-05-01T01:06:05.007Z,0.00
2023-05-01T01:07:04.979Z,0.00
2023-05-01T01:08:04.959Z,0.00
2023-05-01T01:09:04.962Z,0.00
2023-05-01T01:10:04.954Z,0.00
2023-05-01T01:11:04.929Z,0.00
2023-05-01T01:12:04.913Z,0.00
2023-05-01T01:13:04.906Z,0.00
2023-05-01T01:14:04.905Z,0.00
2023-05-01T01:15:04.898Z,0.00
2023-05-01T01:16:04.871Z,0.00
2023-05-01T01:17:05.066Z,0.00
2023-05-01T01:18:04.937Z,0.00
2023-05-01T01:19:04.869Z,0.00
2023-05-01T01:20:04.836Z,0.00
2023-05-01T01:21:04.823Z,0.00
2023-05-01T01:22:04.806Z,0.00
2023-05-01T01:23:04.805Z,0.00
2023-05-01T01:24:04.804Z,0.00
2023-05-01T01:25:04.771Z,0.00
2023-05-01T01:26:04.774Z,0.00
2023-05-01T01:27:04.767Z,0.00
2023-05-01T01:28:04.741Z,0.00
2023-05-01T01:29:04.734Z,0.00
2023-05-01T01:30:04.742Z,0.00
2023-05-01T01:31:04.748Z,0.00
2023-05-01T01:32:04.689Z,0.00
2023-05-01T01:33:04.774Z,0.00
2023-05-01T01:34:04.680Z,0.00
2023-05-01T01:35:04.707Z,0.00
2023-05-01T01:36:04.654Z,0.00
2023-05-01T01:37:04.632Z,0.00
2023-05-01T01:38:04.628Z,0.00
2023-05-01T01:39:04.611Z,0.00
2023-05-01T01:40:04.645Z,0.00
2023-05-01T01:41:04.601Z,0.00
2023-05-01T01:42:04.579Z,0.00
2023-05-01T01:43:04.570Z,0.00
2023-05-01T01:44:04.562Z,0.00
2023-05-01T01:45:04.579Z,0.00
2023-05-01T01:46:04.568Z,0.00
2023-05-01T01:47:04.524Z,0.00
2023-05-01T01:48:04.552Z,0.00
2023-05-01T01:49:04.527Z,0.00
2023-05-01T01:50:04.494Z,0.00
2023-05-01T01:51:04.507Z,0.00
2023-05-01T01:52:04.495Z,0.00
2023-05-01T01:53:04.474Z,0.00
2023-05-01T01:54:04.448Z,0.00
2023-05-01T01:55:04.435Z,0.00
2023-05-01T01:56:04.451Z,0.00
2023-05-01T01:57:04.425Z,0.00
2023-05-01T01:58:04.438Z,0.00
2023-05-01T01:59:04.397Z,0.00
2023-05-01T02:00:04.383Z,0.00
2023-05-01T02:01:04.374Z,0.00
2023-05-01T02:02:04.477Z,0.00
2023-05-01T02:03:04.448Z,0.00
2023-05-01T02:04:04.419Z,0.00
2023-05-01T02:05:04.329Z,0.00
2023-05-01T02:06:04.469Z,0.00
2023-05-01T02:07:04.426Z,0.00
2023-05-01T02:08:04.309Z,0.00
2023-05-01T02:09:04.304Z,0.00
2023-05-01T02:10:04.273Z,0.00
2023-05-01T02:11:04.260Z,0.00
2023-05-01T02:12:04.251Z,0.00
2023-05-01T02:13:04.269Z,0.00
2023-05-01T02:14:04.229Z,0.00
2023-05-01T02:15:04.227Z,0.00
2023-05-01T02:16:04.250Z,0.00
2023-05-01T02:17:04.222Z,0.00
2023-05-01T02:18:04.222Z,0.00
2023-05-01T02:19:04.175Z,0.00
2023-05-01T02:20:04.187Z,0.00
2023-05-01T02:21:04.158Z,0.00
2023-05-01T02:22:04.143Z,0.00
2023-05-01T02:23:04.151Z,0.00
2023-05-01T02:24:04.124Z,0.00
2023-05-01T02:25:04.112Z,0.00
2023-05-01T02:26:04.156Z,0.00
2023-05-01T02:27:04.100Z,0.00
2023-05-01T02:28:04.092Z,0.00
2023-05-01T02:29:04.073Z,0.00
2023-05-01T02:30:04.054Z,0.00
2023-05-01T02:31:04.050Z,0.00
2023-05-01T02:32:04.114Z,0.00
2023-05-01T02:33:04.069Z,0.00
2023-05-01T02:34:04.010Z,0.00
2023-05-01T02:35:04.000Z,0.00
2023-05-01T02:36:03.997Z,0.00
2023-05-01T02:37:04.005Z,0.00
2023-05-01T02:38:03.967Z,0.00
2023-05-01T02:39:03.993Z,0.00
2023-05-01T02:40:03.944Z,0.00
2023-05-01T02:41:03.945Z,0.00
2023-05-01T02:42:03.932Z,0.00
2023-05-01T02:43:03.906Z,0.00
2023-05-01T02:44:03.895Z,0.00
2023-05-01T02:45:03.900Z,0.00
2023-05-01T02:46:03.922Z,0.00
2023-05-01T02:47:03.930Z,0.00
2023-05-01T02:48:03.907Z,0.00
2023-05-01T02:49:03.856Z,0.00
2023-05-01T02:50:03.839Z,0.00
2023-05-01T02:51:03.858Z,0.00
2023-05-01T02:52:03.811Z,0.00
2023-05-01T02:53:03.841Z,0.00
2023-05-01T02:54:03.789Z,0.00
2023-05-01T02:55:03.806Z,0.00
2023-05-01T02:56:03.786Z,0.00
2023-05-01T02:57:03.754Z,0.00
2023-05-01T02:58:03.747Z,0.00
2023-05-01T02:59:03.739Z,0.00
2023-05-01T03:00:03.729Z,0.00
2023-05-01T03:01:03.784Z,0.00
2023-05-01T03:02:03.703Z,0.00
2023-05-01T03:03:03.772Z,0.00
2023-05-01T03:04:03.705Z,0.00
2023-05-01T03:05:03.668Z,0.00
2023-05-01T03:06:03.729Z,0.00
2023-05-01T03:07:03.649Z,0.00
2023-05-01T03:08:03.632Z,0.00
2023-05-01T03:09:03.629Z,0.00
2023-05-01T03:10:03.617Z,0.00
2023-05-01T03:11:03.617Z,0.00
2023-05-01T03:12:03.635Z,0.00
2023-05-01T03:13:03.580Z,0.00
2023-05-01T03:14:03.586Z,0.00
2023-05-01T03:15:03.561Z,0.00
2023-05-01T03:16:03.645Z,0.00
2023-05-01T03:17:03.527Z,0.00
2023-05-01T03:18:03.580Z,0.00
2023-05-01T03:19:03.537Z,0.00
2023-05-01T03:20:03.499Z,0.00
2023-05-01T03:21:03.510Z,0.00
2023-05-01T03:22:03.490Z,0.00
2023-05-01T03:23:03.481Z,0.00
2023-05-01T03:24:03.455Z,0.00
2023-05-01T03:25:03.452Z,0.00
2023-05-01T03:26:03.445Z,0.00
2023-05-01T03:27:03.468Z,0.00
2023-05-01T03:28:03.413Z,0.00
2023-05-01T03:29:03.399Z,0.00
2023-05-01T03:30:03.387Z,0.00
2023-05-01T03:31:03.389Z,0.00
2023-05-01T03:32:03.411Z,0.00
2023-05-01T03:33:03.466Z,0.00
2023-05-01T03:34:03.342Z,0.00
2023-05-01T03:35:03.378Z,0.00
2023-05-01T03:36:03.328Z,0.00
2023-05-01T03:37:03.314Z,0.00
2023-05-01T03:38:03.307Z,0.00
2023-05-01T03:39:03.284Z,0.00
2023-05-01T03:40:03.279Z,0.00
2023-05-01T03:41:03.272Z,4.00
2023-05-01T03:42:03.274Z,0.00
2023-05-01T03:43:03.286Z,4.00
2023-05-01T03:44:03.237Z,0.00
2023-05-01T03:45:03.227Z,0.00
2023-05-01T03:46:03.258Z,4.00
2023-05-01T03:47:03.193Z,4.00
2023-05-01T03:48:03.225Z,4.00
2023-05-01T03:49:03.198Z,4.00
2023-05-01T03:50:03.202Z,4.00
2023-05-01T03:51:03.149Z,8.00
2023-05-01T03:52:03.140Z,4.00
2023-05-01T03:53:03.127Z,4.00
2023-05-01T03:54:03.119Z,8.00
2023-05-01T03:55:03.148Z,8.00
2023-05-01T03:56:03.115Z,8.00
2023-05-01T03:57:03.094Z,12.00
2023-05-01T03:58:03.073Z,8.00
2023-05-01T03:59:03.106Z,12.00
2023-05-01T04:00:03.073Z,12.00
2023-05-01T04:01:03.097Z,16.00
2023-05-01T04:02:03.054Z,20.00
2023-05-01T04:03:03.187Z,16.00
2023-05-01T04:04:03.133Z,20.00
2023-05-01T04:05:03.041Z,20.00
2023-05-01T04:06:02.995Z,24.00
2023-05-01T04:07:03.009Z,24.00
2023-05-01T04:08:02.971Z,24.00
2023-05-01T04:09:02.954Z,28.00
2023-05-01T04:10:02.954Z,32.00
2023-05-01T04:11:02.936Z,36.00
2023-05-01T04:12:02.966Z,36.00
2023-05-01T04:13:02.920Z,40.00
2023-05-01T04:14:02.906Z,40.00
2023-05-01T04:15:02.909Z,52.00
2023-05-01T04:16:02.909Z,40.00
2023-05-01T04:17:02.890Z,56.00
2023-05-01T04:18:02.899Z,48.00
2023-05-01T04:19:02.848Z,60.00
2023-05-01T04:20:02.833Z,56.00
2023-05-01T04:21:02.819Z,68.00
2023-05-01T04:22:02.836Z,64.00
2023-05-01T04:23:02.801Z,72.00
2023-05-01T04:24:02.791Z,80.00
2023-05-01T04:25:02.808Z,84.00
2023-05-01T04:26:02.767Z,92.00
2023-05-01T04:27:02.751Z,88.00
2023-05-01T04:28:02.776Z,108.00
2023-05-01T04:29:02.751Z,100.00
2023-05-01T04:30:02.719Z,124.00
2023-05-01T04:31:02.787Z,108.00
2023-05-01T04:32:02.766Z,140.00
2023-05-01T04:33:02.745Z,120.00
2023-05-01T04:34:02.676Z,160.00
2023-05-01T04:35:04.127Z,128.00
2023-05-01T04:36:02.652Z,172.00
2023-05-01T04:37:02.648Z,136.00
2023-05-01T04:38:02.667Z,184.00
2023-05-01T04:39:02.622Z,156.00
2023-05-01T04:40:02.615Z,184.00
2023-05-01T04:41:02.617Z,164.00
2023-05-01T04:42:02.585Z,184.00
2023-05-01T04:43:02.608Z,184.00
2023-05-01T04:44:02.573Z,200.00
2023-05-01T04:45:02.558Z,208.00
2023-05-01T04:46:02.547Z,216.00
2023-05-01T04:47:02.723Z,228.00
2023-05-01T04:48:02.571Z,220.00
2023-05-01T04:49:02.533Z,252.00
2023-05-01T04:50:02.501Z,224.00
2023-05-01T04:51:02.488Z,272.00
2023-05-01T04:52:02.472Z,240.00
2023-05-01T04:53:02.481Z,288.00
2023-05-01T04:54:02.473Z,252.00
2023-05-01T04:55:02.450Z,304.00
2023-05-01T04:56:02.435Z,264.00
2023-05-01T04:57:02.414Z,320.00
2023-05-01T04:58:02.434Z,288.00
2023-05-01T04:59:02.419Z,308.00
2023-05-01T05:00:02.393Z,300.00
2023-05-01T05:01:02.412Z,328.00
2023-05-01T05:02:02.622Z,324.00
2023-05-01T05:03:02.535Z,316.00
2023-05-01T05:04:02.505Z,336.00
2023-05-01T05:05:02.329Z,348.00
2023-05-01T05:06:02.350Z,372.00
2023-05-01T05:07:02.303Z,336.00
2023-05-01T05:08:02.298Z,388.00
2023-05-01T05:09:02.305Z,356.00
2023-05-01T05:10:02.282Z,412.00
2023-05-01T05:11:02.313Z,376.00
2023-05-01T05:12:02.252Z,448.00
2023-05-01T05:13:02.262Z,420.00
2023-05-01T05:14:02.236Z,488.00
2023-05-01T05:15:02.212Z,416.00
2023-05-01T05:16:02.240Z,532.00
2023-05-01T05:17:02.205Z,512.00
2023-05-01T05:18:02.384Z,564.00
2023-05-01T05:19:02.214Z,552.00
2023-05-01T05:20:02.162Z,624.00
2023-05-01T05:21:02.162Z,648.00
2023-05-01T05:22:02.148Z,656.00
2023-05-01T05:23:02.155Z,764.00
2023-05-01T05:24:02.147Z,744.00
2023-05-01T05:25:02.137Z,876.00
2023-05-01T05:26:02.105Z,816.00
2023-05-01T05:27:02.081Z,1080.00
2023-05-01T05:28:02.155Z,1224.00
2023-05-01T05:29:02.077Z,1120.00
2023-05-01T05:30:02.063Z,1244.00
2023-05-01T05:31:02.050Z,1428.00
2023-05-01T05:32:02.120Z,1936.00
2023-05-01T05:33:02.069Z,2236.00
2023-05-01T05:34:02.013Z,1984.00
2023-05-01T05:35:02.039Z,1632.00
2023-05-01T05:36:01.985Z,1536.00
2023-05-01T05:37:01.976Z,1080.00
2023-05-01T05:38:01.962Z,1160.00
2023-05-01T05:39:02.035Z,972.00
2023-05-01T05:40:01.979Z,876.00
2023-05-01T05:41:01.936Z,980.00
2023-05-01T05:42:01.918Z,920.00
2023-05-01T05:43:01.948Z,1020.00
2023-05-01T05:44:01.898Z,960.00
2023-05-01T05:45:01.936Z,1040.00
2023-05-01T05:46:02.045Z,1048.00
2023-05-01T05:47:01.869Z,1088.00
2023-05-01T05:48:01.935Z,1148.00
2023-05-01T05:49:01.836Z,1228.00
2023-05-01T05:50:01.841Z,1212.00
2023-05-01T05:51:01.839Z,1124.00
2023-05-01T05:52:01.810Z,1184.00
2023-05-01T05:53:01.797Z,1164.00
2023-05-01T05:54:01.786Z,1108.00
2023-05-01T05:55:01.774Z,1228.00
2023-05-01T05:56:01.780Z,1248.00
2023-05-01T05:57:01.766Z,1364.00
2023-05-01T05:58:01.783Z,1420.00
2023-05-01T05:59:01.731Z,1440.00
2023-05-01T06:00:01.717Z,2304.00
2023-05-01T06:01:01.727Z,1464.00
2023-05-01T06:02:01.715Z,1544.00
2023-05-01T06:03:01.809Z,1520.00
2023-05-01T06:04:01.694Z,1768.00
2023-05-01T06:05:01.742Z,1836.00
2023-05-01T06:06:01.867Z,2092.00
2023-05-01T06:07:01.896Z,2748.00
2023-05-01T06:08:01.652Z,5332.00
2023-05-01T06:09:01.633Z,2600.00
2023-05-01T06:10:01.637Z,2464.00
2023-05-01T06:11:01.599Z,4324.00
2023-05-01T06:12:01.588Z,7396.00
2023-05-01T06:13:07.744Z,9152.00
2023-05-01T06:14:02.578Z,8528.00
2023-05-01T06:15:01.559Z,7940.00
2023-05-01T06:16:01.620Z,5040.00
2023-05-01T06:17:01.532Z,6140.00
2023-05-01T06:18:01.565Z,8356.00
2023-05-01T06:19:01.522Z,9084.00
2023-05-01T06:20:01.510Z,9524.00
2023-05-01T06:21:01.488Z,9956.00
2023-05-01T06:22:01.472Z,9752.00
2023-05-01T06:23:01.606Z,9740.00
2023-05-01T06:24:01.462Z,10492.00
2023-05-01T06:25:01.475Z,10440.00
2023-05-01T06:26:01.430Z,12124.00
2023-05-01T06:27:01.600Z,11640.00
2023-05-01T06:28:01.407Z,12684.00
2023-05-01T06:29:01.398Z,12864.00
2023-05-01T06:30:01.384Z,13344.00
2023-05-01T06:31:01.426Z,12040.00
2023-05-01T06:32:01.400Z,12040.00
2023-05-01T06:33:01.388Z,13888.00
2023-05-01T06:34:01.338Z,11444.00
2023-05-01T06:35:01.326Z,14848.00
2023-05-01T06:36:01.339Z,14112.00
2023-05-01T06:37:01.318Z,7968.00
2023-05-01T06:38:01.289Z,4604.00
2023-05-01T06:39:01.302Z,3592.00
2023-05-01T06:40:01.267Z,3124.00
2023-05-01T06:41:01.275Z,3052.00
2023-05-01T06:42:01.461Z,3056.00
2023-05-01T06:43:01.242Z,2928.00
2023-05-01T06:44:01.221Z,2660.00
2023-05-01T06:45:01.226Z,2388.00
2023-05-01T06:46:01.227Z,2348.00
2023-05-01T06:47:01.236Z,1816.00
2023-05-01T06:48:01.205Z,1580.00
2023-05-01T06:49:01.175Z,1404.00
2023-05-01T06:50:02.891Z,1384.00
2023-05-01T06:51:01.146Z,1520.00
2023-05-01T06:52:01.135Z,1440.00
2023-05-01T06:53:01.139Z,1348.00
2023-05-01T06:54:01.114Z,1276.00
2023-05-01T06:55:01.145Z,1276.00
2023-05-01T06:56:01.089Z,1252.00
2023-05-01T06:57:01.107Z,1160.00
2023-05-01T06:58:04.858Z,1104.00
2023-05-01T06:59:02.062Z,1164.00
2023-05-01T07:00:01.044Z,1104.00
2023-05-01T07:01:01.119Z,1028.00
2023-05-01T07:02:01.070Z,1040.00
2023-05-01T07:03:01.084Z,1080.00
2023-05-01T07:04:01.000Z,996.00
2023-05-01T07:05:01.000Z,984.00
2023-05-01T07:06:01.056Z,1072.00
2023-05-01T07:07:01.015Z,1028.00
2023-05-01T07:08:01.876Z,988.00
2023-05-01T07:09:00.967Z,1144.00
2023-05-01T07:10:00.932Z,1168.00
2023-05-01T07:11:01.026Z,1108.00
2023-05-01T07:12:00.916Z,1212.00
2023-05-01T07:13:00.938Z,1328.00
2023-05-01T07:14:00.908Z,1392.00
2023-05-01T07:15:00.907Z,1332.00
2023-05-01T07:16:00.893Z,1296.00
2023-05-01T07:17:01.371Z,1224.00
2023-05-01T07:18:00.913Z,1232.00
2023-05-01T07:19:00.874Z,1304.00
2023-05-01T07:20:00.858Z,1404.00
2023-05-01T07:21:00.831Z,1336.00
2023-05-01T07:22:00.827Z,1400.00
2023-05-01T07:23:00.794Z,1500.00
2023-05-01T07:24:00.783Z,1384.00
2023-05-01T07:25:00.780Z,1372.00
2023-05-01T07:26:00.756Z,1448.00
2023-05-01T07:27:00.790Z,1368.00
2023-05-01T07:28:00.779Z,1248.00
2023-05-01T07:29:00.778Z,1240.00
2023-05-01T07:30:00.724Z,1168.00
2023-05-01T07:31:00.709Z,1052.00
2023-05-01T07:32:00.751Z,1064.00
2023-05-01T07:33:00.705Z,1016.00
2023-05-01T07:34:00.700Z,964.00
2023-05-01T07:35:00.671Z,972.00
2023-05-01T07:36:00.660Z,964.00
2023-05-01T07:37:00.651Z,916.00
2023-05-01T07:38:00.654Z,952.00
2023-05-01T07:39:00.642Z,996.00
2023-05-01T07:40:00.601Z,908.00
2023-05-01T07:41:01.189Z,916.00
2023-05-01T07:42:00.584Z,1008.00
2023-05-01T07:43:00.626Z,940.00
2023-05-01T07:44:00.563Z,920.00
2023-05-01T07:45:00.554Z,1000.00
2023-05-01T07:46:00.822Z,968.00
2023-05-01T07:47:00.529Z,928.00
2023-05-01T07:48:00.546Z,1076.00
2023-05-01T07:49:00.515Z,1072.00
2023-05-01T07:50:00.491Z,1040.00
2023-05-01T07:51:00.496Z,1132.00
2023-05-01T07:52:00.465Z,1212.00
2023-05-01T07:53:00.465Z,1208.00
2023-05-01T07:54:00.443Z,1336.00
2023-05-01T07:55:00.454Z,1328.00
2023-05-01T07:56:00.432Z,1336.00
2023-05-01T07:57:00.434Z,1296.00
2023-05-01T07:58:00.426Z,1460.00
2023-05-01T07:59:00.416Z,1348.00
2023-05-01T08:00:00.381Z,1288.00
2023-05-01T08:01:00.366Z,1376.00
2023-05-01T08:02:00.454Z,1420.00
2023-05-01T08:03:00.481Z,1308.00
2023-05-01T08:04:00.412Z,1336.00
2023-05-01T08:05:00.477Z,1456.00
2023-05-01T08:06:00.423Z,1400.00
2023-05-01T08:07:00.311Z,1368.00
2023-05-01T08:08:00.293Z,1388.00
2023-05-01T08:09:00.291Z,1456.00
2023-05-01T08:10:00.661Z,1288.00
2023-05-01T08:11:00.263Z,1340.00
2023-05-01T08:12:00.277Z,1352.00
2023-05-01T08:13:00.237Z,1272.00
2023-05-01T08:14:00.222Z,1180.00
2023-05-01T08:15:00.249Z,1188.00
2023-05-01T08:16:00.264Z,1260.00
2023-05-01T08:17:00.192Z,1236.00
2023-05-01T08:18:00.288Z,1272.00
2023-05-01T08:19:00.170Z,1228.00
2023-05-01T08:20:00.195Z,1384.00
2023-05-01T08:21:00.158Z,1424.00
2023-05-01T08:22:00.167Z,1476.00
2023-05-01T08:23:00.139Z,1632.00
2023-05-01T08:24:00.150Z,1632.00
2023-05-01T08:25:00.165Z,1652.00
2023-05-01T08:26:00.116Z,2240.00
2023-05-01T08:27:00.130Z,1952.00
2023-05-01T08:28:00.086Z,2072.00
2023-05-01T08:29:00.089Z,3408.00
2023-05-01T08:30:00.053Z,2588.00
2023-05-01T08:31:00.139Z,3224.00
2023-05-01T08:32:00.120Z,2524.00
2023-05-01T08:33:00.061Z,2488.00
2023-05-01T08:34:00.014Z,2324.00
2023-05-01T08:35:00.004Z,2312.00
2023-05-01T08:35:59.993Z,2520.00
2023-05-01T08:36:59.984Z,2536.00
2023-05-01T08:37:59.966Z,2684.00
2023-05-01T08:38:59.971Z,2728.00
2023-05-01T08:39:59.946Z,2720.00
2023-05-01T08:40:59.947Z,2704.00
2023-05-01T08:41:59.917Z,2524.00
2023-05-01T08:42:59.914Z,2492.00
2023-05-01T08:43:59.909Z,2564.00
2023-05-01T08:44:59.907Z,2760.00
2023-05-01T08:45:59.874Z,3376.00
2023-05-01T08:46:59.927Z,4416.00
2023-05-01T08:47:59.972Z,4616.00
2023-05-01T08:48:59.854Z,4544.00
2023-05-01T08:49:59.866Z,4608.00
2023-05-01T08:50:59.829Z,4268.00
2023-05-01T08:51:59.808Z,3728.00
2023-05-01T08:52:59.794Z,3372.00
2023-05-01T08:53:59.783Z,4020.00
2023-05-01T08:54:59.784Z,3752.00
2023-05-01T08:55:59.758Z,3284.00
2023-05-01T08:56:59.761Z,3044.00
2023-05-01T08:57:59.752Z,2884.00
2023-05-01T08:58:59.764Z,3524.00
2023-05-01T08:59:59.714Z,3620.00
2023-05-01T09:00:59.734Z,4412.00
2023-05-01T09:01:59.730Z,4092.00
2023-05-01T09:02:59.756Z,4016.00
2023-05-01T09:03:59.700Z,3984.00
2023-05-01T09:04:59.657Z,3724.00
2023-05-01T09:05:59.717Z,3468.00
2023-05-01T09:06:59.637Z,3736.00
2023-05-01T09:07:59.619Z,3796.00
2023-05-01T09:08:59.628Z,3956.00
2023-05-01T09:09:59.609Z,4088.00
2023-05-01T09:10:59.612Z,4316.00
2023-05-01T09:11:59.575Z,4160.00
2023-05-01T09:12:59.573Z,4048.00
2023-05-01T09:13:59.554Z,3968.00
2023-05-01T09:14:59.555Z,3852.00
2023-05-01T09:15:59.570Z,4332.00
2023-05-01T09:16:59.521Z,4324.00
2023-05-01T09:18:02.321Z,4124.00
2023-05-01T09:18:59.524Z,3720.00
2023-05-01T09:19:59.490Z,4088.00
2023-05-01T09:20:59.480Z,4344.00
2023-05-01T09:21:59.488Z,4036.00
2023-05-01T09:22:59.456Z,4380.00
2023-05-01T09:23:59.441Z,4412.00
2023-05-01T09:24:59.450Z,4456.00
2023-05-01T09:25:59.421Z,4372.00
2023-05-01T09:26:59.448Z,4356.00
2023-05-01T09:27:59.411Z,4312.00
2023-05-01T09:28:59.394Z,4288.00
2023-05-01T09:29:59.529Z,4436.00
2023-05-01T09:30:59.368Z,4420.00
2023-05-01T09:31:59.383Z,4400.00
2023-05-01T09:32:59.389Z,4352.00
2023-05-01T09:33:59.357Z,4296.00
2023-05-01T09:34:59.341Z,4084.00
2023-05-01T09:35:59.309Z,4144.00
2023-05-01T09:36:59.317Z,4032.00
2023-05-01T09:37:59.287Z,4044.00
2023-05-01T09:38:59.281Z,4104.00
2023-05-01T09:39:59.332Z,4116.00
2023-05-01T09:40:59.256Z,4060.00
2023-05-01T09:41:59.268Z,4124.00
2023-05-01T09:42:59.235Z,4160.00
2023-05-01T09:43:59.231Z,4140.00
2023-05-01T09:44:59.218Z,3844.00
2023-05-01T09:45:59.264Z,3816.00
2023-05-01T09:46:59.208Z,4056.00
2023-05-01T09:47:59.215Z,4212.00
2023-05-01T09:48:59.231Z,4244.00
2023-05-01T09:49:59.421Z,4268.00
2023-05-01T09:50:59.273Z,4212.00
2023-05-01T09:51:59.142Z,4308.00
2023-05-01T09:52:59.143Z,4376.00
2023-05-01T09:53:59.112Z,4316.00
2023-05-01T09:54:59.104Z,4324.00
2023-05-01T09:55:59.086Z,4320.00
2023-05-01T09:56:59.081Z,4304.00
2023-05-01T09:57:59.096Z,4332.00
2023-05-01T09:58:59.058Z,4368.00
2023-05-01T09:59:59.048Z,4352.00
2023-05-01T10:00:59.075Z,4308.00
2023-05-01T10:01:59.101Z,4380.00
2023-05-01T10:02:59.092Z,4284.00
2023-05-01T10:03:59.129Z,3892.00
2023-05-01T10:04:59.006Z,3864.00
2023-05-01T10:05:58.997Z,4060.00
2023-05-01T10:06:59.100Z,4132.00
2023-05-01T10:07:58.962Z,4236.00
2023-05-01T10:08:58.994Z,4164.00
2023-05-01T10:10:01.466Z,4100.00
2023-05-01T10:10:58.931Z,4208.00
2023-05-01T10:11:58.940Z,4156.00
2023-05-01T10:12:58.906Z,4140.00
2023-05-01T10:13:58.894Z,4112.00
2023-05-01T10:15:00.551Z,4020.00
2023-05-01T10:15:58.890Z,3980.00
2023-05-01T10:16:58.890Z,4008.00
2023-05-01T10:17:58.928Z,3940.00
2023-05-01T10:18:58.884Z,3828.00
2023-05-01T10:19:59.167Z,3716.00
2023-05-01T10:20:58.898Z,4116.00
2023-05-01T10:21:58.829Z,4228.00
2023-05-01T10:22:58.815Z,3812.00
2023-05-01T10:23:58.784Z,4200.00
2023-05-01T10:24:58.777Z,4148.00
2023-05-01T10:25:59.829Z,4168.00
2023-05-01T10:26:58.746Z,3848.00
2023-05-01T10:27:58.745Z,3600.00
2023-05-01T10:28:58.745Z,3564.00
2023-05-01T10:29:59.033Z,3536.00
2023-05-01T10:30:58.765Z,3544.00
2023-05-01T10:31:58.795Z,3592.00
2023-05-01T10:32:58.811Z,3608.00
2023-05-01T10:33:58.683Z,3644.00
2023-05-01T10:34:58.855Z,3668.00
2023-05-01T10:35:58.686Z,3712.00
2023-05-01T10:36:58.647Z,3780.00
2023-05-01T10:37:58.636Z,3812.00
2023-05-01T10:38:58.632Z,3464.00
2023-05-01T10:39:58.623Z,3468.00
2023-05-01T10:40:58.616Z,3692.00
2023-05-01T10:41:58.672Z,4148.00
2023-05-01T10:42:58.566Z,3596.00
2023-05-01T10:43:58.565Z,3640.00
2023-05-01T10:44:58.739Z,3776.00
2023-05-01T10:45:58.610Z,3784.00
2023-05-01T10:46:58.630Z,3932.00
2023-05-01T10:47:58.537Z,4072.00
2023-05-01T10:48:58.507Z,4088.00
2023-05-01T10:49:58.489Z,4144.00
2023-05-01T10:50:58.636Z,4136.00
2023-05-01T10:51:58.510Z,4172.00
2023-05-01T10:52:58.454Z,4136.00
2023-05-01T10:53:58.448Z,4120.00
2023-05-01T10:54:58.684Z,3956.00
2023-05-01T10:55:58.424Z,3788.00
2023-05-01T10:56:58.450Z,3928.00
2023-05-01T10:57:58.401Z,3648.00
2023-05-01T10:58:58.386Z,3792.00
2023-05-01T10:59:58.378Z,3804.00
2023-05-01T11:00:58.366Z,4024.00
2023-05-01T11:01:58.435Z,4096.00
2023-05-01T11:02:58.394Z,3976.00
2023-05-01T11:03:58.339Z,3936.00
2023-05-01T11:04:58.499Z,3952.00
2023-05-01T11:05:58.444Z,4096.00
2023-05-01T11:06:58.329Z,4124.00
2023-05-01T11:07:58.293Z,4144.00
2023-05-01T11:08:58.297Z,4224.00
2023-05-01T11:09:58.277Z,3608.00
2023-05-01T11:10:58.283Z,3212.00
2023-05-01T11:11:58.271Z,2612.00
2023-05-01T11:12:58.252Z,3716.00
2023-05-01T11:13:58.242Z,3040.00
2023-05-01T11:14:58.467Z,3376.00
2023-05-01T11:15:58.249Z,3040.00
2023-05-01T11:16:58.217Z,3696.00
2023-05-01T11:17:58.246Z,3668.00
2023-05-01T11:18:58.167Z,2452.00
2023-05-01T11:19:58.193Z,3052.00
2023-05-01T11:20:58.157Z,3404.00
2023-05-01T11:21:58.139Z,3036.00
2023-05-01T11:22:58.143Z,3680.00
2023-05-01T11:23:58.118Z,3196.00
2023-05-01T11:24:58.451Z,3272.00
2023-05-01T11:25:58.093Z,3148.00
2023-05-01T11:26:58.122Z,3176.00
2023-05-01T11:27:58.074Z,2628.00
2023-05-01T11:28:58.056Z,2312.00
2023-05-01T11:29:58.048Z,2324.00
2023-05-01T11:30:58.045Z,3812.00
2023-05-01T11:31:58.089Z,4128.00
2023-05-01T11:32:58.062Z,4236.00
2023-05-01T11:33:58.005Z,3064.00
2023-05-01T11:34:58.350Z,3536.00
2023-05-01T11:35:57.979Z,3764.00
2023-05-01T11:36:57.994Z,4116.00
2023-05-01T11:37:57.958Z,3052.00
2023-05-01T11:38:57.965Z,2528.00
2023-05-01T11:39:57.953Z,2368.00
2023-05-01T11:40:57.960Z,2584.00
2023-05-01T11:41:57.992Z,3992.00
2023-05-01T11:42:57.961Z,2656.00
2023-05-01T11:43:57.957Z,2648.00
2023-05-01T11:44:58.098Z,2624.00
2023-05-01T11:45:57.945Z,2564.00
2023-05-01T11:46:57.868Z,4532.00
2023-05-01T11:47:57.887Z,2560.00
2023-05-01T11:48:57.834Z,2520.00
2023-05-01T11:49:57.832Z,2664.00
2023-05-01T11:50:57.809Z,4076.00
2023-05-01T11:51:57.827Z,3524.00
2023-05-01T11:52:57.813Z,2944.00
2023-05-01T11:53:57.786Z,2556.00
2023-05-01T11:54:57.772Z,2320.00
2023-05-01T11:55:57.762Z,2136.00
2023-05-01T11:56:57.748Z,2152.00
2023-05-01T11:57:57.749Z,2204.00
2023-05-01T11:58:57.792Z,2472.00
2023-05-01T11:59:57.727Z,3212.00
2023-05-01T12:00:57.702Z,3800.00
2023-05-01T12:01:57.750Z,3852.00
2023-05-01T12:02:57.825Z,3592.00
2023-05-01T12:03:57.832Z,3748.00
2023-05-01T12:04:57.895Z,3996.00
2023-05-01T12:05:57.698Z,3908.00
2023-05-01T12:06:57.639Z,2608.00
2023-05-01T12:07:57.628Z,3656.00
2023-05-01T12:08:57.628Z,3452.00
2023-05-01T12:09:57.639Z,3628.00
2023-05-01T12:10:57.663Z,2816.00
2023-05-01T12:11:57.590Z,3680.00
2023-05-01T12:12:57.576Z,3184.00
2023-05-01T12:13:57.577Z,3360.00
2023-05-01T12:14:57.868Z,3228.00
2023-05-01T12:15:57.550Z,3256.00
2023-05-01T12:16:57.559Z,2992.00
2023-05-01T12:17:57.588Z,2888.00
2023-05-01T12:18:57.532Z,3104.00
2023-05-01T12:19:57.509Z,3068.00
2023-05-01T12:20:57.490Z,3028.00
2023-05-01T12:21:57.480Z,3076.00
2023-05-01T12:22:57.484Z,2324.00
2023-05-01T12:23:57.478Z,1916.00
2023-05-01T12:24:57.568Z,1832.00
2023-05-01T12:25:57.484Z,2336.00
2023-05-01T12:26:57.433Z,2616.00
2023-05-01T12:27:57.417Z,2880.00
2023-05-01T12:28:57.406Z,3004.00
2023-05-01T12:29:57.443Z,2652.00
2023-05-01T12:30:57.391Z,2760.00